首页
METAR-TAF:

METAR-TAF

机场 :

亞歷山德魯波利斯德謨克利特國際機場

亞歷山德魯波利斯, 希腊

纬度: 40-51N, 经度: 025-55E, 海拔: 7米

当前天气观测

该预报发布于30分钟前的07:50 UTC
风速8节,风向东北
温度 11°C
湿度 76%
气压 1020 hPa
能见度10公里或以上
散云层高于800英尺
多云层高于2000英尺

METAR: LGAL 200750Z 05008KT 9999 SCT008 BKN020 11/07 Q1020

时间: 10:20 (08:20 UTC)

预报

该预报发布于3小时和20分钟前的05:00 UTC
预报有效从20日的 06点(UTC)到 20日的 15点(UTC)
风速10节,风向东转东北
能见度10公里或以上
散云层高于1600英尺
多云层高于6000英尺

TAF: LGAL 200500Z 2006/2015 07010KT 9999 SCT016 BKN060

超过4000个机场的气象观测和天气预报(METAR&TAF报告)。

可查询的气象台以黄色和红色小点在地图上表示。

将鼠标移到小点上方,可查看气象台名称。

然后点击查看天气观测和预报。

如需切换地图:点击带黑十字的绿色按钮放大地图;点击带横线的绿色按钮缩小地图;或者点击绿色箭头查看邻近地区的地图。


METAR-TAF: